Terminal Aerodrome Forecast
Issued by NWS

Home | Current Version | Previous Version | Text Only | Print | Product List | Glossary On
Versions: 1 2 3 4 5 6 7 8 9 10 11 12 13 14 15 16 17 18 19 20 21 22 23 24 25
000
FTUS41 KBUF 240500 RRA
TAFIAG
TAF
KIAG 240543Z 2406/2506 16013KT 6SM -RA OVC060 WS020/17050KT
     FM241000 17018G24KT 6SM -SHRA OVC035 WS020/19050KT
     FM241300 18020G36KT P6SM VCSH BKN030 OVC035 WS020/21055KT
     FM241600 20020G39KT P6SM VCSH BKN035
     FM242200 21023G50KT P6SM BKN035
     FM250300 23027G53KT P6SM BKN030=

USA.gov is the U.S. government's official web portal to all federal, state and local government web resources and services.